If you wish to contribute or participate in the discussions about articles you are invited to join SKYbrary as a registered user

 Actions

Armilla Airport

From SKYbrary Wiki

LEGA
Airport
ICAO: LEGA
Summary
Name Armilla Airport
Region Europe
Territory Spain ES.gif
Location , Andalucia
Serving Granada
Elevation 700.126 m
2,297 ft
2,297 ft700.126 m
Type medium airport
Coordinates 37° 7' 59.60" N, 3° 38' 8.50" W
Runways
Designator Length Width Surface ROPS
18/36 1300 m4,265.092 ft
30 m98.425 ft
ASP /


METAR
Observation LEGA 231100Z 30005KT 270V330 9999 RA BKN028 SCT036 07/05 Q1005
Station Granada / Armilla
Date/Time 23 April 2019 11:00:00
Wind direction 300°
Wind speed 05 kts
Lowest cloud amount broken clouds
Temperature 7°C
Dew point 5°C
Humidity 87%
QNH 1005 hPa
Weather condition rain